^^
Station Historical Data
Daily Summary for January 3, 2018 Units:  Metric    English   Both
« Previous Day
Next Day »
Daily Weekly Monthly Yearly Custom
  High: Low: Average:
Temperature: -17.8 °C -17.1 °C -16.4 °C
Dew Point: -17.8 °C -17.7 °C -16.9 °C
Humidity: Humidity% 93% 93%
Wind Speed: 0km/h 0km/h 2.3km/h
Wind Gust: 0km/h - -
Wind- - SSE
Pressure: 0 hPa 33799.1 hPa -
Precipitation: 71.12 mm    
Historical Graphs
 
 
Tabular Data for January 3, 2018
Time Temperature Dew Point Pressure Wind Wind Speed Wind Gust Humidity Rainfall Rate (Hourly) solar Conditions
-17.8 °C -17.8 °C 0 hPa Calm     Humidity% 0 mm SoftwareType W/m2 Conditions
00:09 -15.9 °C -16.5 °C 33890.5 hPa SW 6.3 km/h 12.9 km/h 93% 0 mm WeatherDisplay:10.37 W/m2 RA
00:17 -15.9 °C -16.4 °C 33890.5 hPa SSW 2.6 km/h 9 km/h 93% 0 mm WeatherDisplay:10.37 W/m2 FEW
00:21 -15.9 °C -16.4 °C 33890.5 hPa Calm     93% 0 mm WeatherDisplay:10.37 W/m2 FEW
00:26 -15.9 °C -16.4 °C 33890.5 hPa SSW 0.8 km/h 15 km/h 93% 0 mm WeatherDisplay:10.37 W/m2 FEW
00:29 -15.9 °C -16.4 °C 33890.5 hPa South 3.7 km/h 9 km/h 93% 0 mm WeatherDisplay:10.37 W/m2 FEW
00:34 -15.9 °C -16.4 °C 33890.5 hPa SE 6.4 km/h 17.9 km/h 93% 0 mm WeatherDisplay:10.37 W/m2 FEW
00:39 -15.9 °C -16.4 °C 33890.5 hPa SSW 2.6 km/h 6 km/h 93% 0 mm WeatherDisplay:10.37 W/m2 FEW
00:44 -15.9 °C -16.4 °C 33890.5 hPa Calm     93% 0 mm WeatherDisplay:10.37 W/m2 FEW
00:51 -15.9 °C -16.5 °C 33890.5 hPa Calm   3.1 km/h 93% 0 mm WeatherDisplay:10.37 W/m2 FEW
00:52 -15.9 °C -16.5 °C 33890.5 hPa Calm     93% 0 mm WeatherDisplay:10.37 W/m2 FEW
00:57 -15.9 °C -16.5 °C 33890.5 hPa SSE 11.6 km/h 20.9 km/h 93% 0 mm WeatherDisplay:10.37 W/m2 FEW
01:00 -15.9 °C -16.4 °C 33890.5 hPa SSE 3.9 km/h 11.9 km/h 93% 0 mm WeatherDisplay:10.37 W/m2 FEW
01:06 -15.9 °C -16.4 °C 33890.5 hPa SE 1.3 km/h 18.2 km/h 93% 0 mm WeatherDisplay:10.37 W/m2 FEW
01:08 -15.9 °C -16.4 °C 33890.5 hPa Calm     93% 0 mm WeatherDisplay:10.37 W/m2 FEW
01:13 -15.9 °C -16.5 °C 33890.5 hPa SE 11.4 km/h 25.9 km/h 93% 0 mm WeatherDisplay:10.37 W/m2 FEW
01:15 -15.9 °C -16.4 °C 33890.5 hPa SE 10.6 km/h 32.8 km/h 93% 0 mm WeatherDisplay:10.37 W/m2 FEW
01:20 -15.9 °C -16.4 °C 33890.5 hPa WSW 1 km/h 11.9 km/h 93% 0 mm WeatherDisplay:10.37 W/m2 FEW
01:25 -15.9 °C -16.4 °C 33890.5 hPa WSW 3.1 km/h 15 km/h 93% 0 mm WeatherDisplay:10.37 W/m2 FEW
01:30 -15.9 °C -16.4 °C 33890.5 hPa Calm   6 km/h 93% 7.62 mm WeatherDisplay:10.37 W/m2 RA
01:35 -15.9 °C -16.4 °C 33890.5 hPa Calm   9 km/h 93% 7.62 mm WeatherDisplay:10.37 W/m2 RA
01:40 -15.9 °C -16.4 °C 33890.5 hPa East 1 km/h 9 km/h 93% 7.62 mm WeatherDisplay:10.37 W/m2 FEW
01:45 -15.9 °C -16.4 °C 33890.5 hPa Calm   11.9 km/h 93% 7.62 mm WeatherDisplay:10.37 W/m2 FEW
01:50 -15.9 °C -16.4 °C 33890.5 hPa SSE 4.3 km/h 15 km/h 93% 7.62 mm WeatherDisplay:10.37 W/m2 FEW
01:51 -15.9 °C -16.4 °C 33890.5 hPa SSE 3.9 km/h 17.9 km/h 93% 7.62 mm WeatherDisplay:10.37 W/m2 FEW
01:56 -15.9 °C -16.4 °C 33890.5 hPa East 3.7 km/h 9 km/h 93% 7.62 mm WeatherDisplay:10.37 W/m2 FEW
02:11 -15.9 °C -16.4 °C 33890.5 hPa SSW 4.2 km/h 11.9 km/h 93% 7.62 mm WeatherDisplay:10.37 W/m2 FEW
02:19 -15.9 °C -16.4 °C 33890.5 hPa SSW 0.8 km/h 9 km/h 93% 7.62 mm WeatherDisplay:10.37 W/m2 FEW
02:24 -15.9 °C -16.4 °C 33890.5 hPa South 2.3 km/h 9 km/h 93% 7.62 mm WeatherDisplay:10.37 W/m2 FEW
02:29 -15.9 °C -16.5 °C 33890.5 hPa Calm     93% 0 mm WeatherDisplay:10.37 W/m2 FEW
02:33 -15.9 °C -16.5 °C 33890.5 hPa South 9.7 km/h 26.9 km/h 93% 0 mm WeatherDisplay:10.37 W/m2 FEW
02:39 -15.9 °C -16.5 °C 33900.6 hPa South 10.9 km/h 20.9 km/h 93% 0 mm WeatherDisplay:10.37 W/m2 FEW
02:40 -15.9 °C -16.5 °C 33900.6 hPa SW 4.3 km/h 23.8 km/h 93% 0 mm WeatherDisplay:10.37 W/m2 FEW
02:45 -15.9 °C -16.5 °C 33890.5 hPa WSW 0.3 km/h 10.3 km/h 93% 0 mm WeatherDisplay:10.37 W/m2 FEW
02:48 -15.9 °C -16.4 °C 33890.5 hPa West 8.9 km/h 15 km/h 93% 0 mm WeatherDisplay:10.37 W/m2 FEW
02:53 -15.9 °C -16.5 °C 33900.6 hPa SSW 11.1 km/h 17.9 km/h 93% 0 mm WeatherDisplay:10.37 W/m2 FEW
02:58 -15.9 °C -16.5 °C 33900.6 hPa SSW 6.8 km/h 17.9 km/h 93% 0 mm WeatherDisplay:10.37 W/m2 FEW
03:03 -15.9 °C -16.5 °C 33900.6 hPa Calm   9 km/h 93% 0 mm WeatherDisplay:10.37 W/m2 FEW
03:04 -15.9 °C -16.5 °C 33900.6 hPa NNW 3.4 km/h 7.7 km/h 93% 0 mm WeatherDisplay:10.37 W/m2 FEW
03:10 -15.9 °C -16.4 °C 33900.6 hPa Calm     94% 0 mm WeatherDisplay:10.37 W/m2 FEW
03:11 -15.9 °C -16.4 °C 33900.6 hPa Calm     94% 0 mm WeatherDisplay:10.37 W/m2 FEW
03:17 -15.9 °C -16.4 °C 33890.5 hPa South 8.5 km/h 26.9 km/h 94% 0 mm WeatherDisplay:10.37 W/m2 FEW
03:22 -15.9 °C -16.4 °C 33890.5 hPa SSW 6 km/h 17.9 km/h 94% 0 mm WeatherDisplay:10.37 W/m2 FEW
03:28 -15.9 °C -16.4 °C 33900.6 hPa SE 7.2 km/h 23.8 km/h 94% 0 mm WeatherDisplay:10.37 W/m2 FEW
03:37 -16 °C -16.5 °C 33890.5 hPa NNW 3.1 km/h 9 km/h 94% 0 mm WeatherDisplay:10.37 W/m2 FEW
03:42 -15.9 °C -16.4 °C 33890.5 hPa East 12.4 km/h 29.8 km/h 94% 0 mm WeatherDisplay:10.37 W/m2 FEW
03:44 -15.9 °C -16.4 °C 33890.5 hPa South 9.3 km/h 18.2 km/h 94% 0 mm WeatherDisplay:10.37 W/m2 FEW
03:49 -15.9 °C -16.5 °C 33890.5 hPa South 0.5 km/h 15.6 km/h 93% 0 mm WeatherDisplay:10.37 W/m2 FEW
03:54 -15.9 °C -16.4 °C 33890.5 hPa SW 6.8 km/h 11.9 km/h 94% 0 mm WeatherDisplay:10.37 W/m2 FEW
03:59 -15.9 °C -16.4 °C 33890.5 hPa SSE 5.5 km/h 15 km/h 94% 0 mm WeatherDisplay:10.37 W/m2 FEW
04:01 -15.9 °C -16.4 °C 33890.5 hPa South 5 km/h 15.6 km/h 94% 0 mm WeatherDisplay:10.37 W/m2 FEW
04:08 -15.9 °C -16.5 °C 33890.5 hPa Calm     93% 0 mm WeatherDisplay:10.37 W/m2 FEW
04:14 -15.9 °C -16.4 °C 33890.5 hPa NNE 3.4 km/h 9 km/h 94% 0 mm WeatherDisplay:10.37 W/m2 FEW
04:19 -15.9 °C -16.4 °C 33890.5 hPa SW 0.3 km/h 5.1 km/h 94% 0 mm WeatherDisplay:10.37 W/m2 FEW
04:20 -15.9 °C -16.4 °C 33880.3 hPa SW 1 km/h 6 km/h 94% 0 mm WeatherDisplay:10.37 W/m2 FEW
04:21 -15.9 °C -16.4 °C 33880.3 hPa SSW 1.6 km/h 7.7 km/h 94% 0 mm WeatherDisplay:10.37 W/m2 FEW
04:26 -16 °C -16.5 °C 33890.5 hPa South 1.6 km/h 15 km/h 94% 0 mm WeatherDisplay:10.37 W/m2 FEW
04:32 -16 °C -16.5 °C 33890.5 hPa SSE 4.2 km/h 11.9 km/h 94% 7.62 mm WeatherDisplay:10.37 W/m2 RA
04:37 -16 °C -16.6 °C 33890.5 hPa South 0.5 km/h 9 km/h 93% 7.62 mm WeatherDisplay:10.37 W/m2 FEW
04:42 -16 °C -16.5 °C 33880.3 hPa NNW 1.3 km/h 9 km/h 94% 12.7 mm WeatherDisplay:10.37 W/m2 RA
04:46 -16.1 °C -16.6 °C 33890.5 hPa Calm   6 km/h 94% 12.7 mm WeatherDisplay:10.37 W/m2 RA
04:51 -16.1 °C -16.6 °C 33880.3 hPa SE 4.2 km/h 9 km/h 93% 12.7 mm WeatherDisplay:10.37 W/m2 FEW
04:56 -16.1 °C -16.6 °C 33880.3 hPa SE 1 km/h 11.9 km/h 93% 12.7 mm WeatherDisplay:10.37 W/m2 FEW
05:01 -16.1 °C -16.6 °C 33880.3 hPa Calm   9 km/h 93% 12.7 mm WeatherDisplay:10.37 W/m2 FEW
05:07 -16.1 °C -16.6 °C 33880.3 hPa NE 1.3 km/h 9 km/h 93% 12.7 mm WeatherDisplay:10.37 W/m2 RA
05:10 -16.1 °C -16.6 °C 33880.3 hPa Calm     93% 12.7 mm WeatherDisplay:10.37 W/m2 RA
05:16 -16.1 °C -16.6 °C 33880.3 hPa South 4.2 km/h 17.9 km/h 93% 12.7 mm WeatherDisplay:10.37 W/m2 FEW
05:21 -16.1 °C -16.6 °C 33880.3 hPa South 2.3 km/h 15.6 km/h 93% 12.7 mm WeatherDisplay:10.37 W/m2 FEW
05:26 -16.1 °C -16.6 °C 33880.3 hPa SSE 1.3 km/h 15.6 km/h 93% 12.7 mm WeatherDisplay:10.37 W/m2 FEW
05:32 -16.1 °C -16.6 °C 33880.3 hPa South 3.7 km/h 11.9 km/h 93% 12.7 mm WeatherDisplay:10.37 W/m2 RA
05:37 -16.1 °C -16.6 °C 33880.3 hPa South 6 km/h 23.8 km/h 93% 20.32 mm WeatherDisplay:10.37 W/m2 RA
05:42 -16.1 °C -16.6 °C 33880.3 hPa SW 7.2 km/h 17.9 km/h 93% 20.32 mm WeatherDisplay:10.37 W/m2 RA
05:47 -16.1 °C -16.7 °C 33880.3 hPa South 4.2 km/h 15 km/h 93% 25.4 mm WeatherDisplay:10.37 W/m2 RA
05:49 -16.1 °C -16.7 °C 33880.3 hPa South 3.9 km/h 11.9 km/h 93% 25.4 mm WeatherDisplay:10.37 W/m2 RA
05:54 -16.1 °C -16.7 °C 33880.3 hPa South 5 km/h 10.3 km/h 93% 25.4 mm WeatherDisplay:10.37 W/m2 FEW
05:57 -16.1 °C -16.7 °C 33880.3 hPa WSW 1.6 km/h 9 km/h 93% 25.4 mm WeatherDisplay:10.37 W/m2 FEW
06:02 -16.2 °C -16.7 °C 33880.3 hPa SSW 7.2 km/h 9 km/h 93% 33.02 mm WeatherDisplay:10.37 W/m2 RA
06:04 -16.2 °C -16.7 °C 33880.3 hPa ESE 11.9 km/h 33.6 km/h 93% 25.4 mm WeatherDisplay:10.37 W/m2 RA
06:09 -16.2 °C -16.7 °C 33880.3 hPa Calm     93% 33.02 mm WeatherDisplay:10.37 W/m2 RA
06:13 -16.2 °C -16.7 °C 33880.3 hPa WSW 1.8 km/h 9 km/h 93% 33.02 mm WeatherDisplay:10.37 W/m2 RA
06:18 -16.2 °C -16.7 °C 33866.8 hPa South 8 km/h 11.9 km/h 93% 33.02 mm WeatherDisplay:10.37 W/m2 FEW
06:19 -16.2 °C -16.7 °C 33880.3 hPa SSW 3.9 km/h 9 km/h 93% 33.02 mm WeatherDisplay:10.37 W/m2 FEW
06:24 -16.2 °C -16.7 °C 33866.8 hPa WSW 6.8 km/h 9 km/h 93% 38.1 mm WeatherDisplay:10.37 W/m2 RA
06:26 -16.2 °C -16.7 °C 33866.8 hPa South 6.4 km/h 9 km/h 93% 38.1 mm WeatherDisplay:10.37 W/m2 RA
06:31 -16.2 °C -16.7 °C 33866.8 hPa SW 6 km/h 17.9 km/h 93% 38.1 mm WeatherDisplay:10.37 W/m2 FEW
06:36 -16.2 °C -16.7 °C 33880.3 hPa SE 4.7 km/h 10.3 km/h 93% 25.4 mm WeatherDisplay:10.37 W/m2 FEW
06:42 -16.2 °C -16.8 °C 33866.8 hPa North 1 km/h 6 km/h 93% 20.32 mm WeatherDisplay:10.37 W/m2 FEW
06:57 -16.2 °C -16.7 °C 33866.8 hPa SSW 6.9 km/h 20.9 km/h 93% 12.7 mm WeatherDisplay:10.37 W/m2 FEW
07:02 -16.2 °C -16.7 °C 33866.8 hPa ESE 6 km/h 9 km/h 93% 12.7 mm WeatherDisplay:10.37 W/m2 FEW
07:04 -16.2 °C -16.7 °C 33866.8 hPa Calm     93% 12.7 mm WeatherDisplay:10.37 W/m2 FEW
07:08 -16.2 °C -16.7 °C 33866.8 hPa SW 1.3 km/h 11.9 km/h 93% 7.62 mm WeatherDisplay:10.37 W/m2 FEW
07:13 -16.2 °C -16.8 °C 33866.8 hPa SSW 5.6 km/h 11.9 km/h 93% 7.62 mm WeatherDisplay:10.37 W/m2 FEW
07:18 -16.2 °C -16.7 °C 33866.8 hPa SE 5.6 km/h 9 km/h 93% 12.7 mm WeatherDisplay:10.37 W/m2 RA
07:19 -16.2 °C -16.7 °C 33866.8 hPa SE 5.1 km/h 20.9 km/h 93% 12.7 mm WeatherDisplay:10.37 W/m2 RA
07:24 -16.2 °C -16.7 °C 33866.8 hPa Calm   15 km/h 93% 7.62 mm WeatherDisplay:10.37 W/m2 RA
07:29 -16.2 °C -16.8 °C 33866.8 hPa East 2.3 km/h 6 km/h 93% 7.62 mm WeatherDisplay:10.37 W/m2 FEW
07:30 -16.2 °C -16.8 °C 33866.8 hPa East 2.3 km/h 9 km/h 93% 7.62 mm WeatherDisplay:10.37 W/m2 FEW
07:40 -16.2 °C -16.8 °C 33866.8 hPa South 0.5 km/h 6 km/h 93% 7.62 mm WeatherDisplay:10.37 W/m2 FEW
07:41 -16.2 °C -16.8 °C 33866.8 hPa South 1.6 km/h 15.6 km/h 93% 7.62 mm WeatherDisplay:10.37 W/m2 FEW
07:42 -16.2 °C -16.8 °C 33866.8 hPa South 1.8 km/h 15 km/h 93% 7.62 mm WeatherDisplay:10.37 W/m2 FEW
07:48 -16.2 °C -16.8 °C 33866.8 hPa Calm     93% 7.62 mm WeatherDisplay:10.37 W/m2 FEW
07:53 -16.2 °C -16.8 °C 33866.8 hPa South 3.1 km/h 25.9 km/h 93% 7.62 mm WeatherDisplay:10.37 W/m2 FEW
07:58 -16.2 °C -16.7 °C 33866.8 hPa Calm     93% 7.62 mm WeatherDisplay:10.37 W/m2 FEW
07:59 -16.2 °C -16.7 °C 33866.8 hPa Calm     93% 7.62 mm WeatherDisplay:10.37 W/m2 FEW
08:04 -16.2 °C -16.7 °C 33866.8 hPa SE 4.7 km/h 11.9 km/h 93% 7.62 mm WeatherDisplay:10.37 W/m2 FEW
08:06 -16.2 °C -16.8 °C 33866.8 hPa South 3.7 km/h 9 km/h 93% 7.62 mm WeatherDisplay:10.37 W/m2 FEW
08:16 -16.2 °C -16.8 °C 33866.8 hPa WSW 4.3 km/h 9 km/h 93% 0 mm WeatherDisplay:10.37 W/m2 FEW
08:21 -16.2 °C -16.7 °C 33866.8 hPa Calm     93% 0 mm WeatherDisplay:10.37 W/m2 FEW
08:26 -16.2 °C -16.8 °C 33866.8 hPa Calm     93% 0 mm WeatherDisplay:10.37 W/m2 FEW
08:29 -16.2 °C -16.8 °C 33866.8 hPa SSE 3.7 km/h 9 km/h 93% 0 mm WeatherDisplay:10.37 W/m2 FEW
08:32 -16.2 °C -16.8 °C 33866.8 hPa SSE 8.9 km/h 17.9 km/h 93% 0 mm WeatherDisplay:10.37 W/m2 FEW
08:37 -16.2 °C -16.8 °C 33880.3 hPa South 2.9 km/h 17.9 km/h 93% 0 mm WeatherDisplay:10.37 W/m2 FEW
08:42 -16.2 °C -16.8 °C 33880.3 hPa South 0.5 km/h   93% 0 mm WeatherDisplay:10.37 W/m2 FEW
08:47 -16.2 °C -16.8 °C 33880.3 hPa Calm     93% 0 mm WeatherDisplay:10.37 W/m2 FEW
08:53 -16.2 °C -16.8 °C 33880.3 hPa Calm     93% 0 mm WeatherDisplay:10.37 W/m2 FEW
08:58 -16.2 °C -16.8 °C 33880.3 hPa SW 0.3 km/h 5.1 km/h 93% 0 mm WeatherDisplay:10.37 W/m2 FEW
09:03 -16.2 °C -16.8 °C 33880.3 hPa Calm     93% 0 mm WeatherDisplay:10.37 W/m2 FEW
09:04 -16.2 °C -16.8 °C 33880.3 hPa Calm     93% 0 mm WeatherDisplay:10.37 W/m2 FEW
09:09 -16.2 °C -16.8 °C 33866.8 hPa Calm     93% 0 mm WeatherDisplay:10.37 W/m2 FEW
09:14 -16.2 °C -16.8 °C 33880.3 hPa WSW 3.7 km/h 10.3 km/h 93% 0 mm WeatherDisplay:10.37 W/m2 FEW
09:18 -16.2 °C -16.8 °C 33880.3 hPa Calm     93% 0 mm WeatherDisplay:10.37 W/m2 FEW
09:22 -16.2 °C -16.8 °C 33880.3 hPa SSE 1.6 km/h 5.1 km/h 93% 0 mm WeatherDisplay:10.37 W/m2 FEW
09:28 -16.3 °C -16.8 °C 33880.3 hPa ESE 0.5 km/h 6 km/h 93% 0 mm WeatherDisplay:10.37 W/m2 FEW
09:33 -16.3 °C -16.8 °C 33880.3 hPa Calm     93% 0 mm WeatherDisplay:10.37 W/m2 FEW
09:37 -16.3 °C -16.8 °C 33880.3 hPa SE 4.2 km/h 11.9 km/h 93% 0 mm WeatherDisplay:10.37 W/m2 FEW
09:43 -16.3 °C -16.8 °C 33880.3 hPa SE 1.3 km/h 10.3 km/h 93% 0 mm WeatherDisplay:10.37 W/m2 FEW
09:48 -16.3 °C -16.8 °C 33880.3 hPa Calm     93% 0 mm WeatherDisplay:10.37 W/m2 FEW
09:53 -16.3 °C -16.8 °C 33880.3 hPa NNE 2.9 km/h 9 km/h 93% 0 mm WeatherDisplay:10.37 W/m2 FEW
09:54 -16.3 °C -16.8 °C 33880.3 hPa Calm     93% 0 mm WeatherDisplay:10.37 W/m2 FEW
09:59 -16.3 °C -16.8 °C 33880.3 hPa SW 2.6 km/h 9 km/h 93% 0 mm WeatherDisplay:10.37 W/m2 FEW
10:00 -16.3 °C -16.8 °C 33880.3 hPa SW 0.8 km/h 9 km/h 93% 0 mm WeatherDisplay:10.37 W/m2 FEW
10:05 -16.3 °C -16.8 °C 33880.3 hPa Calm     93% 0 mm WeatherDisplay:10.37 W/m2 FEW
10:11 -16.3 °C -16.8 °C 33880.3 hPa SE 2.6 km/h 17.9 km/h 93% 0 mm WeatherDisplay:10.37 W/m2 FEW
10:16 -16.3 °C -16.8 °C 33880.3 hPa Calm     93% 0 mm WeatherDisplay:10.37 W/m2 FEW
10:21 -16.3 °C -16.8 °C 33880.3 hPa Calm     93% 0 mm WeatherDisplay:10.37 W/m2 FEW
10:26 -16.3 °C -16.9 °C 33880.3 hPa ESE 1.8 km/h 10.3 km/h 93% 0 mm WeatherDisplay:10.37 W/m2 FEW
10:31 -16.3 °C -16.9 °C 33880.3 hPa Calm     93% 0 mm WeatherDisplay:10.37 W/m2 FEW
10:36 -16.3 °C -16.9 °C 33880.3 hPa SW 4.3 km/h 9 km/h 93% 0 mm WeatherDisplay:10.37 W/m2 FEW
10:46 -16.3 °C -16.9 °C 33880.3 hPa SSE 0.3 km/h 9 km/h 93% 0 mm WeatherDisplay:10.37 W/m2 FEW
10:51 -16.3 °C -16.9 °C 33880.3 hPa SSE 1.6 km/h 9 km/h 93% 0 mm WeatherDisplay:10.37 W/m2 FEW
10:52 -16.3 °C -16.9 °C 33880.3 hPa SSE 0.3 km/h 5.1 km/h 93% 0 mm WeatherDisplay:10.37 W/m2 FEW
10:57 -16.3 °C -16.9 °C 33880.3 hPa South 2.3 km/h 20.9 km/h 93% 0 mm WeatherDisplay:10.37 W/m2 FEW
11:00 -16.3 °C -16.8 °C 33880.3 hPa Calm   6 km/h 93% 0 mm WeatherDisplay:10.37 W/m2 FEW
11:08 -16.3 °C -16.9 °C 33880.3 hPa Calm     93% 0 mm WeatherDisplay:10.37 W/m2 FEW
11:09 -16.3 °C -16.9 °C 33880.3 hPa Calm     93% 0 mm WeatherDisplay:10.37 W/m2 FEW
11:18 -16.3 °C -16.9 °C 33880.3 hPa Calm   6 km/h 93% 0 mm WeatherDisplay:10.37 W/m2 FEW
11:27 -16.3 °C -16.9 °C 33866.8 hPa Calm     93% 0 mm WeatherDisplay:10.37 W/m2 FEW
11:32 -16.3 °C -16.8 °C 33880.3 hPa South 0.5 km/h 9 km/h 93% 0 mm WeatherDisplay:10.37 W/m2 FEW
11:37 -16.3 °C -16.8 °C 33866.8 hPa Calm   6 km/h 93% 0 mm WeatherDisplay:10.37 W/m2 FEW
11:39 -16.3 °C -16.9 °C 33866.8 hPa Calm     93% 0 mm WeatherDisplay:10.37 W/m2 FEW
11:45 -16.3 °C -16.9 °C 33866.8 hPa Calm   10.3 km/h 93% 0 mm WeatherDisplay:10.37 W/m2 FEW
11:50 -16.3 °C -16.9 °C 33866.8 hPa Calm     93% 0 mm WeatherDisplay:10.37 W/m2 FEW
11:54 -16.3 °C -16.9 °C 33866.8 hPa Calm     93% 0 mm WeatherDisplay:10.37 W/m2 FEW
12:00 -16.3 °C -16.9 °C 33866.8 hPa Calm     93% 0 mm WeatherDisplay:10.37 W/m2 FEW
12:06 -16.3 °C -16.9 °C 33866.8 hPa Calm     93% 0 mm WeatherDisplay:10.37 W/m2 FEW
12:16 -16.3 °C -16.9 °C 33866.8 hPa Calm     93% 0 mm WeatherDisplay:10.37 W/m2 FEW
12:23 -16.3 °C -16.9 °C 33856.6 hPa Calm     93% 0 mm WeatherDisplay:10.37 W/m2 FEW
12:28 -16.3 °C -16.9 °C 33856.6 hPa Calm     93% 0 mm WeatherDisplay:10.37 W/m2 FEW
12:33 -16.3 °C -16.9 °C 33856.6 hPa Calm     93% 0 mm WeatherDisplay:10.37 W/m2 FEW
12:39 -16.3 °C -16.9 °C 33856.6 hPa SE 0.3 km/h 6 km/h 93% 0 mm WeatherDisplay:10.37 W/m2 FEW
12:41 -16.3 °C -16.9 °C 33856.6 hPa Calm     93% 0 mm WeatherDisplay:10.37 W/m2 FEW
12:46 -16.3 °C -16.9 °C 33856.6 hPa Calm   3.1 km/h 93% 0 mm WeatherDisplay:10.37 W/m2 FEW
12:56 -16.3 °C -16.9 °C 33856.6 hPa South 1.8 km/h 9 km/h 93% 0 mm WeatherDisplay:10.37 W/m2 FEW
12:58 -16.3 °C -16.9 °C 33856.6 hPa South 0.5 km/h 3.1 km/h 93% 0 mm WeatherDisplay:10.37 W/m2 FEW
13:03 -16.3 °C -16.9 °C 33856.6 hPa SSW 5.5 km/h 11.9 km/h 93% 0 mm WeatherDisplay:10.37 W/m2 FEW
13:08 -16.3 °C -16.9 °C 33856.6 hPa South 2.1 km/h 9 km/h 93% 0 mm WeatherDisplay:10.37 W/m2 FEW
13:09 -16.3 °C -16.9 °C 33856.6 hPa Calm     93% 0 mm WeatherDisplay:10.37 W/m2 FEW
13:16 -16.4 °C -16.9 °C 33856.6 hPa Calm     93% 0 mm WeatherDisplay:10.37 W/m2 FEW
13:18 -16.4 °C -16.9 °C 33856.6 hPa Calm     93% 0 mm WeatherDisplay:10.37 W/m2 FEW
13:28 -16.4 °C -17 °C 33856.6 hPa Calm     93% 0 mm WeatherDisplay:10.37 W/m2 FEW
13:33 -16.4 °C -17 °C 33856.6 hPa SSW 1 km/h 9 km/h 93% 0 mm WeatherDisplay:10.37 W/m2 FEW
13:38 -16.4 °C -17 °C 33856.6 hPa ESE 2.1 km/h 9 km/h 93% 0 mm WeatherDisplay:10.37 W/m2 FEW
13:43 -16.4 °C -17 °C 33856.6 hPa SE 6.8 km/h 9 km/h 93% 0 mm WeatherDisplay:10.37 W/m2 FEW
13:52 -16.4 °C -17 °C 33843.1 hPa Calm     93% 0 mm WeatherDisplay:10.37 W/m2 FEW
13:58 -16.4 °C -17 °C 33843.1 hPa Calm     93% 0 mm WeatherDisplay:10.37 W/m2 FEW
14:02 -16.5 °C -17.1 °C 33843.1 hPa Calm     93% 0 mm WeatherDisplay:10.37 W/m2 FEW
14:08 -16.5 °C -17.1 °C 33843.1 hPa Calm     93% 0 mm WeatherDisplay:10.37 W/m2 FEW
14:11 -16.4 °C -17 °C 33843.1 hPa Calm     93% 0 mm WeatherDisplay:10.37 W/m2 FEW
14:16 -16.5 °C -17.1 °C 33843.1 hPa Calm     93% 0 mm WeatherDisplay:10.37 W/m2 FEW
14:21 -16.5 °C -17.1 °C 33856.6 hPa Calm     93% 0 mm WeatherDisplay:10.37 W/m2 FEW
14:24 -16.5 °C -17.1 °C 33843.1 hPa Calm     93% 0 mm WeatherDisplay:10.37 W/m2 FEW
14:25 -16.5 °C -17.1 °C 33843.1 hPa SE 1 km/h 6 km/h 93% 0 mm WeatherDisplay:10.37 W/m2 FEW
14:30 -16.5 °C -17.1 °C 33843.1 hPa Calm     93% 0 mm WeatherDisplay:10.37 W/m2 FEW
14:36 -16.5 °C -17.1 °C 33843.1 hPa Calm     93% 0 mm WeatherDisplay:10.37 W/m2 FEW
14:41 -16.5 °C -17.1 °C 33843.1 hPa Calm     93% 0 mm WeatherDisplay:10.37 W/m2 FEW
14:46 -16.5 °C -17.1 °C 33843.1 hPa Calm     93% 0 mm WeatherDisplay:10.37 W/m2 FEW
14:51 -16.6 °C -17.1 °C 33843.1 hPa Calm     93% 0 mm WeatherDisplay:10.37 W/m2 FEW
14:53 -16.6 °C -17.1 °C 33843.1 hPa Calm     93% 0 mm WeatherDisplay:10.37 W/m2 FEW
14:58 -16.6 °C -17.1 °C 33843.1 hPa Calm     93% 0 mm WeatherDisplay:10.37 W/m2 FEW
15:03 -16.6 °C -17.1 °C 33843.1 hPa Calm     93% 0 mm WeatherDisplay:10.37 W/m2 FEW
15:08 -16.6 °C -17.1 °C 33843.1 hPa Calm     93% 0 mm WeatherDisplay:10.37 W/m2 FEW
15:13 -16.6 °C -17.1 °C 33843.1 hPa Calm     93% 0 mm WeatherDisplay:10.37 W/m2 FEW
15:18 -16.6 °C -17.1 °C 33843.1 hPa Calm     93% 0 mm WeatherDisplay:10.37 W/m2 FEW
15:23 -16.6 °C -17.1 °C 33843.1 hPa Calm     93% 0 mm WeatherDisplay:10.37 W/m2 FEW
15:28 -16.6 °C -17.1 °C 33843.1 hPa Calm     93% 0 mm WeatherDisplay:10.37 W/m2 FEW
15:33 -16.6 °C -17.1 °C 33832.9 hPa Calm     93% 0 mm WeatherDisplay:10.37 W/m2 FEW
15:38 -16.6 °C -17.1 °C 33832.9 hPa Calm     93% 0 mm WeatherDisplay:10.37 W/m2 FEW
15:43 -16.6 °C -17.1 °C 33832.9 hPa Calm     93% 0 mm WeatherDisplay:10.37 W/m2 FEW
15:44 -16.6 °C -17.1 °C 33832.9 hPa Calm     93% 0 mm WeatherDisplay:10.37 W/m2 FEW
15:49 -16.6 °C -17.1 °C 33832.9 hPa Calm     93% 0 mm WeatherDisplay:10.37 W/m2 FEW
15:50 -16.6 °C -17.1 °C 33832.9 hPa SE 4.2 km/h 9 km/h 93% 0 mm WeatherDisplay:10.37 W/m2 FEW
15:56 -16.6 °C -17.1 °C 33832.9 hPa SE 0.3 km/h 6 km/h 93% 0 mm WeatherDisplay:10.37 W/m2 FEW
16:01 -16.6 °C -17.1 °C 33832.9 hPa Calm     93% 0 mm WeatherDisplay:10.37 W/m2 FEW
16:06 -16.6 °C -17.1 °C 33832.9 hPa SE 3.7 km/h 6 km/h 93% 0 mm WeatherDisplay:10.37 W/m2 FEW
16:11 -16.6 °C -17.1 °C 33832.9 hPa Calm     93% 0 mm WeatherDisplay:10.37 W/m2 FEW
16:12 -16.6 °C -17.1 °C 33832.9 hPa SE 1.8 km/h 3.1 km/h 93% 0 mm WeatherDisplay:10.37 W/m2 FEW
16:18 -16.6 °C -17.1 °C 33832.9 hPa Calm     93% 0 mm WeatherDisplay:10.37 W/m2 FEW
16:23 -16.6 °C -17.1 °C 33832.9 hPa Calm   2.6 km/h 93% 0 mm WeatherDisplay:10.37 W/m2 FEW
16:25 -16.6 °C -17.1 °C 33832.9 hPa ESE 0.8 km/h 6 km/h 93% 0 mm WeatherDisplay:10.37 W/m2 FEW
16:30 -16.6 °C -17.1 °C 33832.9 hPa Calm     93% 0 mm WeatherDisplay:10.37 W/m2 FEW
16:35 -16.6 °C -17.1 °C 33832.9 hPa Calm     93% 0 mm WeatherDisplay:10.37 W/m2 FEW
16:38 -16.6 °C -17.1 °C 33832.9 hPa SE 2.1 km/h 6 km/h 93% 0 mm WeatherDisplay:10.37 W/m2 FEW
16:46 -16.6 °C -17.1 °C 33832.9 hPa SE 0.5 km/h 3.1 km/h 93% 0 mm WeatherDisplay:10.37 W/m2 FEW
16:51 -16.6 °C -17.1 °C 33832.9 hPa ESE 0.8 km/h 9 km/h 93% 0 mm WeatherDisplay:10.37 W/m2 FEW
17:01 -16.6 °C -17.1 °C 33832.9 hPa ESE 1 km/h 6 km/h 93% 0 mm WeatherDisplay:10.37 W/m2 FEW
17:02 -16.6 °C -17.1 °C 33832.9 hPa Calm     93% 0 mm WeatherDisplay:10.37 W/m2 FEW
17:07 -16.6 °C -17.1 °C 33832.9 hPa Calm     93% 0 mm WeatherDisplay:10.37 W/m2 FEW
17:12 -16.6 °C -17.1 °C 33832.9 hPa East 0.3 km/h 3.1 km/h 93% 0 mm WeatherDisplay:10.37 W/m2 FEW
17:16 -16.6 °C -17.1 °C 33832.9 hPa ESE 5 km/h 17.9 km/h 93% 0 mm WeatherDisplay:10.37 W/m2 FEW
17:19 -16.6 °C -17.1 °C 33832.9 hPa Calm   6 km/h 93% 0 mm WeatherDisplay:10.37 W/m2 FEW
17:24 -16.6 °C -17.1 °C 33822.8 hPa Calm   9 km/h 93% 0 mm WeatherDisplay:10.37 W/m2 FEW
17:29 -16.6 °C -17.1 °C 33822.8 hPa Calm     93% 0 mm WeatherDisplay:10.37 W/m2 FEW
17:39 -16.6 °C -17.1 °C 33832.9 hPa Calm     93% 0 mm WeatherDisplay:10.37 W/m2 FEW
17:43 -16.6 °C -17.1 °C 33832.9 hPa Calm     93% 0 mm WeatherDisplay:10.37 W/m2 FEW
17:53 -16.6 °C -17.1 °C 33822.8 hPa SSE 1.8 km/h 12.9 km/h 93% 0 mm WeatherDisplay:10.37 W/m2 FEW
17:55 -16.6 °C -17.1 °C 33822.8 hPa SSE 6.9 km/h 11.9 km/h 93% 0 mm WeatherDisplay:10.37 W/m2 FEW
18:00 -16.6 °C -17.2 °C 33822.8 hPa Calm   3.1 km/h 93% 0 mm WeatherDisplay:10.37 W/m2 FEW
18:07 -16.6 °C -17.2 °C 33822.8 hPa Calm     93% 0 mm WeatherDisplay:10.37 W/m2 FEW
18:12 -16.6 °C -17.2 °C 33822.8 hPa SSE 2.3 km/h 9 km/h 93% 0 mm WeatherDisplay:10.37 W/m2 FEW
18:18 -16.6 °C -17.2 °C 33822.8 hPa SSE 1.6 km/h 12.9 km/h 93% 0 mm WeatherDisplay:10.37 W/m2 FEW
18:24 -16.6 °C -17.2 °C 33822.8 hPa East 4.7 km/h 9 km/h 93% 0 mm WeatherDisplay:10.37 W/m2 FEW
18:25 -16.7 °C -17.2 °C 33822.8 hPa East 0.8 km/h 9 km/h 93% 0 mm WeatherDisplay:10.37 W/m2 FEW
18:30 -16.7 °C -17.2 °C 33822.8 hPa SE 4.2 km/h 9 km/h 93% 0 mm WeatherDisplay:10.37 W/m2 FEW
18:35 -16.7 °C -17.2 °C 33822.8 hPa Calm   6 km/h 93% 0 mm WeatherDisplay:10.37 W/m2 FEW
18:40 -16.7 °C -17.3 °C 33822.8 hPa Calm     93% 0 mm WeatherDisplay:10.37 W/m2 FEW
18:45 -16.7 °C -17.3 °C 33822.8 hPa Calm     93% 0 mm WeatherDisplay:10.37 W/m2 FEW
18:50 -16.7 °C -17.3 °C 33832.9 hPa East 1.3 km/h 5.1 km/h 93% 0 mm WeatherDisplay:10.37 W/m2 FEW
18:54 -16.7 °C -17.3 °C 33832.9 hPa Calm     93% 7.62 mm WeatherDisplay:10.37 W/m2 RA
18:55 -16.7 °C -17.3 °C 33822.8 hPa Calm     93% 7.62 mm WeatherDisplay:10.37 W/m2 RA
19:00 -16.7 °C -17.3 °C 33822.8 hPa SE 0.8 km/h 6 km/h 93% 7.62 mm WeatherDisplay:10.37 W/m2 RA
19:05 -16.8 °C -17.3 °C 33822.8 hPa Calm     93% 7.62 mm WeatherDisplay:10.37 W/m2 FEW
19:10 -16.8 °C -17.3 °C 33822.8 hPa ESE 1 km/h 7.7 km/h 93% 7.62 mm WeatherDisplay:10.37 W/m2 FEW
19:14 -16.8 °C -17.3 °C 33822.8 hPa East 0.3 km/h 3.1 km/h 93% 7.62 mm WeatherDisplay:10.37 W/m2 FEW
19:19 -16.8 °C -17.3 °C 33832.9 hPa SE 5.5 km/h 9 km/h 93% 7.62 mm WeatherDisplay:10.37 W/m2 FEW
19:24 -16.8 °C -17.3 °C 33832.9 hPa Calm     93% 7.62 mm WeatherDisplay:10.37 W/m2 FEW
19:27 -16.8 °C -17.4 °C 33832.9 hPa ESE 5.6 km/h 9 km/h 93% 7.62 mm WeatherDisplay:10.37 W/m2 FEW
19:33 -16.8 °C -17.4 °C 33832.9 hPa SE 4.2 km/h 11.9 km/h 93% 7.62 mm WeatherDisplay:10.37 W/m2 FEW
19:38 -16.8 °C -17.4 °C 33832.9 hPa Calm     93% 7.62 mm WeatherDisplay:10.37 W/m2 FEW
19:43 -16.8 °C -17.4 °C 33832.9 hPa Calm     93% 7.62 mm WeatherDisplay:10.37 W/m2 FEW
19:47 -16.9 °C -17.4 °C 33832.9 hPa Calm     93% 7.62 mm WeatherDisplay:10.37 W/m2 FEW
19:49 -16.8 °C -17.4 °C 33822.8 hPa East 2.1 km/h 6 km/h 93% 7.62 mm WeatherDisplay:10.37 W/m2 FEW
19:54 -16.9 °C -17.4 °C 33822.8 hPa SSE 3.1 km/h 10.3 km/h 93% 0 mm WeatherDisplay:10.37 W/m2 FEW
19:59 -16.9 °C -17.4 °C 33822.8 hPa Calm     93% 0 mm WeatherDisplay:10.37 W/m2 FEW
20:04 -16.9 °C -17.4 °C 33822.8 hPa ESE 4.7 km/h 7.7 km/h 93% 0 mm WeatherDisplay:10.37 W/m2 FEW
20:05 -16.9 °C -17.4 °C 33822.8 hPa ENE 5.5 km/h 10.3 km/h 93% 0 mm WeatherDisplay:10.37 W/m2 FEW
20:11 -16.9 °C -17.4 °C 33822.8 hPa ESE 4.2 km/h 11.9 km/h 93% 7.62 mm WeatherDisplay:10.37 W/m2 RA
20:16 -16.9 °C -17.4 °C 33822.8 hPa ESE 2.9 km/h 9 km/h 93% 7.62 mm WeatherDisplay:10.37 W/m2 RA
20:22 -16.8 °C -17.4 °C 33822.8 hPa East 1.8 km/h 9 km/h 93% 7.62 mm WeatherDisplay:10.37 W/m2 FEW
20:31 -16.8 °C -17.4 °C 33822.8 hPa SE 7.6 km/h 17.9 km/h 93% 7.62 mm WeatherDisplay:10.37 W/m2 FEW
20:41 -16.9 °C -17.4 °C 33822.8 hPa ESE 0.8 km/h 5.1 km/h 93% 7.62 mm WeatherDisplay:10.37 W/m2 FEW
20:42 -16.9 °C -17.4 °C 33822.8 hPa East 10.1 km/h 15.6 km/h 93% 7.62 mm WeatherDisplay:10.37 W/m2 FEW
20:53 -16.9 °C -17.4 °C 33822.8 hPa Calm     93% 7.62 mm WeatherDisplay:10.37 W/m2 FEW
20:59 -16.9 °C -17.4 °C 33822.8 hPa ENE 6.3 km/h 11.9 km/h 93% 7.62 mm WeatherDisplay:10.37 W/m2 FEW
21:01 -16.9 °C -17.4 °C 33822.8 hPa ENE 1.6 km/h 12.9 km/h 93% 7.62 mm WeatherDisplay:10.37 W/m2 FEW
21:05 -16.9 °C -17.4 °C 33822.8 hPa ESE 4.3 km/h 7.7 km/h 93% 7.62 mm WeatherDisplay:10.37 W/m2 FEW
21:10 -16.9 °C -17.4 °C 33822.8 hPa ESE 3.9 km/h 9 km/h 93% 0 mm WeatherDisplay:10.37 W/m2 FEW
21:15 -16.9 °C -17.5 °C 33822.8 hPa East 6.3 km/h 15 km/h 93% 0 mm WeatherDisplay:10.37 W/m2 FEW
21:25 -16.9 °C -17.5 °C 33822.8 hPa Calm     93% 0 mm WeatherDisplay:10.37 W/m2 FEW
21:30 -17 °C -17.6 °C 33822.8 hPa ESE 5.5 km/h 9 km/h 93% 0 mm WeatherDisplay:10.37 W/m2 FEW
21:31 -17 °C -17.6 °C 33822.8 hPa ESE 2.3 km/h 9 km/h 93% 0 mm WeatherDisplay:10.37 W/m2 FEW
21:37 -17 °C -17.6 °C 33822.8 hPa Calm     93% 0 mm WeatherDisplay:10.37 W/m2 FEW
21:42 -17 °C -17.6 °C 33822.8 hPa Calm   9 km/h 93% 0 mm WeatherDisplay:10.37 W/m2 FEW
21:44 -17 °C -17.6 °C 33822.8 hPa ESE 6 km/h 9 km/h 93% 0 mm WeatherDisplay:10.37 W/m2 FEW
21:54 -17 °C -17.6 °C 33822.8 hPa NE 4.7 km/h 15 km/h 93% 0 mm WeatherDisplay:10.37 W/m2 FEW
21:59 -17 °C -17.6 °C 33822.8 hPa Calm     93% 0 mm WeatherDisplay:10.37 W/m2 FEW
22:04 -17 °C -17.6 °C 33822.8 hPa Calm   9 km/h 93% 0 mm WeatherDisplay:10.37 W/m2 FEW
22:06 -17 °C -17.6 °C 33822.8 hPa Calm   3.1 km/h 93% 0 mm WeatherDisplay:10.37 W/m2 FEW
22:11 -17 °C -17.6 °C 33822.8 hPa Calm     93% 0 mm WeatherDisplay:10.37 W/m2 FEW
22:18 -17 °C -17.6 °C 33809.2 hPa East 1.8 km/h 9 km/h 93% 0 mm WeatherDisplay:10.37 W/m2 FEW
22:23 -17 °C -17.6 °C 33809.2 hPa East 6.4 km/h 15 km/h 93% 0 mm WeatherDisplay:10.37 W/m2 FEW
22:28 -17 °C -17.6 °C 33809.2 hPa ESE 4.7 km/h 9 km/h 93% 0 mm WeatherDisplay:10.37 W/m2 FEW
22:32 -17 °C -17.6 °C 33809.2 hPa Calm     93% 0 mm WeatherDisplay:10.37 W/m2 FEW
22:38 -17 °C -17.6 °C 33809.2 hPa ESE 7.2 km/h 17.9 km/h 93% 0 mm WeatherDisplay:10.37 W/m2 FEW
22:48 -17 °C -17.6 °C 33809.2 hPa Calm     93% 0 mm WeatherDisplay:10.37 W/m2 FEW
22:53 -17 °C -17.6 °C 33809.2 hPa Calm     93% 0 mm WeatherDisplay:10.37 W/m2 FEW
23:01 -17 °C -17.6 °C 33809.2 hPa Calm     93% 0 mm WeatherDisplay:10.37 W/m2 FEW
23:02 -17 °C -17.6 °C 33809.2 hPa Calm     93% 0 mm WeatherDisplay:10.37 W/m2 FEW
23:07 -17 °C -17.6 °C 33809.2 hPa East 4.3 km/h 9 km/h 93% 0 mm WeatherDisplay:10.37 W/m2 FEW
23:12 -17 °C -17.6 °C 33809.2 hPa ESE 5.5 km/h 9 km/h 93% 0 mm WeatherDisplay:10.37 W/m2 FEW
23:22 -17.1 °C -17.6 °C 33809.2 hPa SSE 13.2 km/h 20.9 km/h 93% 0 mm WeatherDisplay:10.37 W/m2 FEW
23:26 -17.1 °C -17.6 °C 33809.2 hPa Calm   3.1 km/h 93% 0 mm WeatherDisplay:10.37 W/m2 FEW
23:30 -17.1 °C -17.6 °C 33809.2 hPa East 10.1 km/h 20.9 km/h 93% 0 mm WeatherDisplay:10.37 W/m2 FEW
23:36 -17.1 °C -17.6 °C 33809.2 hPa SSE 4.3 km/h 17.9 km/h 93% 0 mm WeatherDisplay:10.37 W/m2 FEW
23:41 -17.1 °C -17.6 °C 33809.2 hPa SE 6.3 km/h 23.8 km/h 93% 0 mm WeatherDisplay:10.37 W/m2 FEW
23:51 -17.1 °C -17.7 °C 33799.1 hPa East 3.7 km/h 20.9 km/h 93% 0 mm WeatherDisplay:10.37 W/m2 FEW
23:56 -17.1 °C -17.7 °C 33809.2 hPa ESE 3.7 km/h 6 km/h 93% 0 mm WeatherDisplay:10.37 W/m2 FEW
Tuulensuunkaari, Veikkola, Suomi
Compliments of Weather Underground - 2.75 mb